createdAt,value
2018-06-22T00:00:00.920Z,17.70
2018-06-22T00:02:30.254Z,17.70
2018-06-22T00:04:59.111Z,17.70
2018-06-22T00:07:28.047Z,17.70
2018-06-22T00:09:57.089Z,17.60
2018-06-22T00:12:26.211Z,17.40
2018-06-22T00:14:55.034Z,17.20
2018-06-22T00:17:23.927Z,17.00
2018-06-22T00:19:52.804Z,16.80
2018-06-22T00:22:21.643Z,16.80
2018-06-22T00:24:50.536Z,16.70
2018-06-22T00:27:19.525Z,16.60
2018-06-22T00:29:48.391Z,16.50
2018-06-22T00:32:17.325Z,16.50
2018-06-22T00:34:46.498Z,16.60
2018-06-22T00:37:15.305Z,16.60
2018-06-22T00:39:44.303Z,16.70
2018-06-22T00:42:13.155Z,16.70
2018-06-22T00:44:47.336Z,16.70
2018-06-22T00:47:16.133Z,16.80
2018-06-22T00:49:45.046Z,16.80
2018-06-22T00:52:13.954Z,16.80
2018-06-22T00:54:48.002Z,16.80
2018-06-22T00:57:17.418Z,16.80
2018-06-22T00:59:46.225Z,16.90
2018-06-22T01:02:15.023Z,16.90
2018-06-22T01:04:44.087Z,16.80
2018-06-22T01:07:12.781Z,16.70
2018-06-22T01:09:41.631Z,16.60
2018-06-22T01:12:10.299Z,16.60
2018-06-22T01:14:38.995Z,16.60
2018-06-22T01:17:07.729Z,16.60
2018-06-22T01:19:36.463Z,16.60
2018-06-22T01:22:05.315Z,16.50
2018-06-22T01:24:34.042Z,16.30
2018-06-22T01:27:02.715Z,16.30
2018-06-22T01:29:32.318Z,16.30
2018-06-22T01:32:02.093Z,16.30
2018-06-22T01:34:31.014Z,16.30
2018-06-22T01:36:59.699Z,16.30
2018-06-22T01:39:28.410Z,16.20
2018-06-22T01:41:57.084Z,16.10
2018-06-22T01:44:25.980Z,16.00
2018-06-22T01:46:54.672Z,16.00
2018-06-22T01:49:23.371Z,15.90
2018-06-22T01:51:52.115Z,15.90
2018-06-22T01:54:21.127Z,15.90
2018-06-22T01:56:49.806Z,15.90
2018-06-22T01:59:18.593Z,16.00
2018-06-22T02:01:47.303Z,16.00
2018-06-22T02:04:16.056Z,16.10
2018-06-22T02:06:44.792Z,16.10
2018-06-22T02:09:13.839Z,16.00
2018-06-22T02:11:42.561Z,15.90
2018-06-22T02:14:11.196Z,15.90
2018-06-22T02:16:39.943Z,15.90
2018-06-22T02:19:08.706Z,15.80
2018-06-22T02:21:37.434Z,15.80
2018-06-22T02:24:06.275Z,15.80
2018-06-22T02:26:34.981Z,15.80
2018-06-22T02:29:03.697Z,15.70
2018-06-22T02:31:32.411Z,15.60
2018-06-22T02:34:06.226Z,15.50
2018-06-22T02:36:34.973Z,15.30
2018-06-22T02:39:03.843Z,15.20
2018-06-22T02:41:32.566Z,15.30
2018-06-22T02:44:01.347Z,15.30
2018-06-22T02:46:30.091Z,15.20
2018-06-22T02:48:58.825Z,15.20
2018-06-22T02:51:27.644Z,15.30
2018-06-22T02:53:56.423Z,15.30
2018-06-22T02:56:25.329Z,15.30
2018-06-22T02:58:54.096Z,15.40
2018-06-22T03:01:22.832Z,15.40
2018-06-22T03:03:51.686Z,15.40
2018-06-22T03:06:20.384Z,15.50
2018-06-22T03:08:49.128Z,15.40
2018-06-22T03:11:18.058Z,15.40
2018-06-22T03:13:47.054Z,15.30
2018-06-22T03:16:15.739Z,15.10
2018-06-22T03:18:44.515Z,15.00
2018-06-22T03:21:13.153Z,15.00
2018-06-22T03:23:42.483Z,15.10
2018-06-22T03:26:11.206Z,15.10
2018-06-22T03:28:39.931Z,15.20
2018-06-22T03:31:09.097Z,15.20
2018-06-22T03:33:37.812Z,15.30
2018-06-22T03:36:06.583Z,15.30
2018-06-22T03:38:35.352Z,15.10
2018-06-22T03:41:04.055Z,15.10
2018-06-22T03:43:32.751Z,15.00
2018-06-22T03:46:01.466Z,15.00
2018-06-22T03:48:30.207Z,15.00
2018-06-22T03:50:59.397Z,15.10
2018-06-22T03:53:33.338Z,15.00
2018-06-22T03:56:01.982Z,15.10
2018-06-22T03:58:30.647Z,15.10
2018-06-22T04:00:59.343Z,14.90
2018-06-22T04:03:37.541Z,14.90
2018-06-22T04:06:06.263Z,14.90
2018-06-22T04:08:35.022Z,14.90
2018-06-22T04:11:03.732Z,14.90
2018-06-22T04:13:37.584Z,15.00
2018-06-22T04:16:06.316Z,15.00
2018-06-22T04:18:34.965Z,15.10
2018-06-22T04:21:03.644Z,15.00
2018-06-22T04:23:32.610Z,15.00
2018-06-22T04:26:01.252Z,15.00
2018-06-22T04:28:29.871Z,14.90
2018-06-22T04:30:58.529Z,14.80
2018-06-22T04:33:27.175Z,14.80
2018-06-22T04:35:55.933Z,14.80
2018-06-22T04:38:24.574Z,14.80
2018-06-22T04:40:53.236Z,14.80
2018-06-22T04:43:21.961Z,14.90
2018-06-22T04:45:50.679Z,14.90
2018-06-22T04:48:19.351Z,15.00
2018-06-22T04:50:48.111Z,15.00
2018-06-22T04:53:22.099Z,15.00
2018-06-22T04:55:50.791Z,15.10
2018-06-22T04:58:19.471Z,15.10
2018-06-22T05:00:48.168Z,15.10
2018-06-22T05:03:17.093Z,15.10
2018-06-22T05:05:45.871Z,15.10
2018-06-22T05:08:15.022Z,15.10
2018-06-22T05:10:43.773Z,15.20
2018-06-22T05:13:12.495Z,15.20
2018-06-22T05:15:41.271Z,15.10
2018-06-22T05:18:09.942Z,15.10
2018-06-22T05:20:38.638Z,15.10
2018-06-22T05:23:07.648Z,15.10
2018-06-22T05:25:36.354Z,15.00
2018-06-22T05:28:05.021Z,15.00
2018-06-22T05:30:33.759Z,14.90
2018-06-22T05:33:02.554Z,15.00
2018-06-22T05:35:31.177Z,15.10
2018-06-22T05:37:59.849Z,15.00
2018-06-22T05:40:28.529Z,15.00
2018-06-22T05:42:57.262Z,15.00
2018-06-22T05:45:26.076Z,14.90
2018-06-22T05:47:55.024Z,14.90
2018-06-22T05:50:23.828Z,15.00
2018-06-22T05:52:52.940Z,15.10
2018-06-22T05:55:23.751Z,15.20
2018-06-22T05:57:52.391Z,15.20
2018-06-22T06:00:21.050Z,15.30
2018-06-22T06:02:49.691Z,15.20
2018-06-22T06:05:18.259Z,15.20
2018-06-22T06:07:46.968Z,15.20
2018-06-22T06:10:15.686Z,15.20
2018-06-22T06:12:44.308Z,15.10
2018-06-22T06:15:13.049Z,15.20
2018-06-22T06:17:41.684Z,15.20
2018-06-22T06:20:10.965Z,15.20
2018-06-22T06:22:40.120Z,15.20
2018-06-22T06:25:08.703Z,15.10
2018-06-22T06:27:37.735Z,15.10
2018-06-22T06:30:06.652Z,15.00
2018-06-22T06:32:35.324Z,15.00
2018-06-22T06:35:04.081Z,15.00
2018-06-22T06:37:32.912Z,15.00
2018-06-22T06:40:01.658Z,15.00
2018-06-22T06:42:30.378Z,15.00
2018-06-22T06:44:59.094Z,15.00
2018-06-22T06:47:30.019Z,15.00
2018-06-22T06:49:58.891Z,15.00
2018-06-22T06:52:28.689Z,15.00
2018-06-22T06:54:57.842Z,15.00
2018-06-22T06:57:26.748Z,15.00
2018-06-22T06:59:57.334Z,15.00
2018-06-22T07:02:26.329Z,14.90
2018-06-22T07:04:55.583Z,15.00
2018-06-22T07:07:24.813Z,15.00
2018-06-22T07:09:53.571Z,15.00
2018-06-22T07:12:22.311Z,15.00
2018-06-22T07:14:51.327Z,14.90
2018-06-22T07:17:20.058Z,15.00
2018-06-22T07:19:48.965Z,15.00
2018-06-22T07:22:17.786Z,15.00
2018-06-22T07:24:46.549Z,15.00
2018-06-22T07:27:15.230Z,15.00
2018-06-22T07:29:43.911Z,15.00
2018-06-22T07:32:14.008Z,15.00
2018-06-22T07:34:43.447Z,15.00
2018-06-22T07:37:12.422Z,15.10
2018-06-22T07:39:42.259Z,15.10
2018-06-22T07:42:17.554Z,15.10
2018-06-22T07:44:46.958Z,15.10
2018-06-22T07:47:15.835Z,15.20
2018-06-22T07:49:51.164Z,15.30
2018-06-22T07:52:20.315Z,15.30
2018-06-22T07:54:49.099Z,15.30
2018-06-22T07:57:17.826Z,15.30
2018-06-22T07:59:46.541Z,15.30
2018-06-22T08:02:15.294Z,15.20
2018-06-22T08:04:49.227Z,15.30
2018-06-22T08:07:18.000Z,15.40
2018-06-22T08:09:46.681Z,15.50
2018-06-22T08:12:15.332Z,15.60
2018-06-22T08:14:44.498Z,15.70
2018-06-22T08:17:13.171Z,15.70
2018-06-22T08:19:41.940Z,15.70
2018-06-22T08:22:10.542Z,15.70
2018-06-22T08:24:39.114Z,15.70
2018-06-22T08:27:07.815Z,15.60
2018-06-22T08:29:36.492Z,15.60
2018-06-22T08:32:05.125Z,15.60
2018-06-22T08:34:33.819Z,15.60
2018-06-22T08:37:02.475Z,15.70
2018-06-22T08:39:31.119Z,15.70
2018-06-22T08:41:59.870Z,15.70
2018-06-22T08:44:33.578Z,15.80
2018-06-22T08:47:02.270Z,15.90
2018-06-22T08:49:30.998Z,16.00
2018-06-22T08:51:59.687Z,16.00
2018-06-22T08:54:28.395Z,16.10
2018-06-22T08:56:57.028Z,16.00
2018-06-22T08:59:25.638Z,16.10
2018-06-22T09:01:54.597Z,16.10
2018-06-22T09:04:23.778Z,16.30
2018-06-22T09:06:53.142Z,16.40
2018-06-22T09:09:21.802Z,16.50
2018-06-22T09:11:50.402Z,16.50
2018-06-22T09:14:19.115Z,16.50
2018-06-22T09:16:47.784Z,16.30
2018-06-22T09:19:16.500Z,16.30
2018-06-22T09:21:45.147Z,16.20
2018-06-22T09:24:19.118Z,16.20
2018-06-22T09:26:47.800Z,16.20
2018-06-22T09:29:16.443Z,16.20
2018-06-22T09:31:45.061Z,16.20
2018-06-22T09:34:13.779Z,16.40
2018-06-22T09:36:42.458Z,16.60
2018-06-22T09:39:12.136Z,16.80
2018-06-22T09:41:40.938Z,17.00
2018-06-22T09:44:19.683Z,17.30
2018-06-22T09:46:48.279Z,17.60
2018-06-22T09:49:16.914Z,17.70
2018-06-22T09:51:45.507Z,17.70
2018-06-22T09:54:19.188Z,17.90
2018-06-22T09:56:47.767Z,18.20
2018-06-22T09:59:16.339Z,18.10
2018-06-22T10:01:44.892Z,18.20
2018-06-22T10:04:13.754Z,18.30
2018-06-22T10:06:42.323Z,18.20
2018-06-22T10:09:12.508Z,18.20
2018-06-22T10:11:41.279Z,18.20
2018-06-22T10:14:10.038Z,18.30
2018-06-22T10:16:38.735Z,18.20
2018-06-22T10:19:07.244Z,18.10
2018-06-22T10:21:35.809Z,18.10
2018-06-22T10:24:04.398Z,18.20
2018-06-22T10:26:33.051Z,18.40
2018-06-22T10:29:02.411Z,18.50
2018-06-22T10:31:31.008Z,18.60
2018-06-22T10:33:59.750Z,18.50
2018-06-22T10:36:28.250Z,18.60
2018-06-22T10:38:56.814Z,18.90
2018-06-22T10:41:25.451Z,19.00
2018-06-22T10:43:54.423Z,19.10
2018-06-22T10:46:23.055Z,19.30
2018-06-22T10:48:51.664Z,19.30
2018-06-22T10:51:20.202Z,19.40
2018-06-22T10:53:58.411Z,19.40
2018-06-22T10:56:27.027Z,19.40
2018-06-22T10:58:55.655Z,19.60
2018-06-22T11:01:24.335Z,19.60
2018-06-22T11:03:58.051Z,19.80
2018-06-22T11:06:26.654Z,19.80
2018-06-22T11:08:55.279Z,19.90
2018-06-22T11:11:24.093Z,20.00
2018-06-22T11:13:52.807Z,20.20
2018-06-22T11:16:21.362Z,20.20
2018-06-22T11:18:50.020Z,20.00
2018-06-22T11:21:18.706Z,20.10
2018-06-22T11:23:52.495Z,20.20
2018-06-22T11:26:21.850Z,20.10
2018-06-22T11:28:50.511Z,20.30
2018-06-22T11:31:19.323Z,20.40
2018-06-22T11:33:48.062Z,20.30
2018-06-22T11:36:16.728Z,20.40
2018-06-22T11:38:45.393Z,20.50
2018-06-22T11:41:14.174Z,20.70
2018-06-22T11:43:42.834Z,20.70
2018-06-22T11:46:11.527Z,20.80
2018-06-22T11:48:40.152Z,20.70
2018-06-22T11:51:08.890Z,20.70
2018-06-22T11:53:37.518Z,20.90
2018-06-22T11:56:06.574Z,21.00
2018-06-22T11:58:35.185Z,21.40
2018-06-22T12:01:04.043Z,21.60
2018-06-22T12:03:32.761Z,21.80
2018-06-22T12:06:01.424Z,21.90
2018-06-22T12:08:30.087Z,22.00
2018-06-22T12:10:58.705Z,22.10
2018-06-22T12:13:27.306Z,22.10
2018-06-22T12:15:56.457Z,22.00
2018-06-22T12:18:25.110Z,21.90
2018-06-22T12:20:54.755Z,21.90
2018-06-22T12:23:23.447Z,22.20
2018-06-22T12:25:52.031Z,22.30
2018-06-22T12:28:20.976Z,22.40
2018-06-22T12:30:49.660Z,22.40
2018-06-22T12:33:18.305Z,22.10
2018-06-22T12:35:46.995Z,22.00
2018-06-22T12:38:15.627Z,22.00
2018-06-22T12:40:44.226Z,22.10
2018-06-22T12:43:12.822Z,22.10
2018-06-22T12:45:41.506Z,22.30
2018-06-22T12:48:10.115Z,22.40
2018-06-22T12:50:38.731Z,22.50
2018-06-22T12:53:07.522Z,22.50
2018-06-22T12:55:36.155Z,22.40
2018-06-22T12:58:05.043Z,22.50
2018-06-22T13:00:33.871Z,22.60
2018-06-22T13:03:02.555Z,22.60
2018-06-22T13:05:31.193Z,22.60
2018-06-22T13:07:59.771Z,22.50
2018-06-22T13:10:28.367Z,22.40
2018-06-22T13:12:57.099Z,22.30
2018-06-22T13:15:25.776Z,22.20
2018-06-22T13:17:54.424Z,22.20
2018-06-22T13:20:23.042Z,22.10
2018-06-22T13:22:51.712Z,22.20
2018-06-22T13:25:20.392Z,22.00
2018-06-22T13:27:48.991Z,21.90
2018-06-22T13:30:17.612Z,22.10
2018-06-22T13:32:46.277Z,22.20
2018-06-22T13:35:15.422Z,22.20
2018-06-22T13:37:44.195Z,22.20
2018-06-22T13:40:12.979Z,22.20
2018-06-22T13:42:41.695Z,22.40
2018-06-22T13:45:10.407Z,22.50
2018-06-22T13:47:39.423Z,22.60
2018-06-22T13:50:08.038Z,22.50
2018-06-22T13:52:37.676Z,22.10
2018-06-22T13:55:06.487Z,21.90
2018-06-22T13:57:35.605Z,21.70
2018-06-22T14:00:04.867Z,22.00
2018-06-22T14:02:33.614Z,21.90
2018-06-22T14:05:12.637Z,21.80
2018-06-22T14:07:41.265Z,21.80
2018-06-22T14:10:10.810Z,21.90
2018-06-22T14:12:39.491Z,22.00
2018-06-22T14:15:08.117Z,22.10
2018-06-22T14:17:36.763Z,22.20
2018-06-22T14:20:05.523Z,22.20
2018-06-22T14:22:34.174Z,22.20
2018-06-22T14:25:02.887Z,22.40
2018-06-22T14:27:31.506Z,22.50
2018-06-22T14:30:00.112Z,22.60
2018-06-22T14:32:28.729Z,22.70
2018-06-22T14:34:57.598Z,22.40
2018-06-22T14:37:26.177Z,22.20
2018-06-22T14:39:55.013Z,22.20
2018-06-22T14:42:23.521Z,22.10
2018-06-22T14:45:01.763Z,22.10
2018-06-22T14:47:30.696Z,22.00
2018-06-22T14:49:59.356Z,22.10
2018-06-22T14:52:27.990Z,22.20
2018-06-22T14:55:01.903Z,22.20
2018-06-22T14:57:36.780Z,22.30
2018-06-22T15:00:10.763Z,22.50
2018-06-22T15:02:44.638Z,22.60
2018-06-22T15:05:18.591Z,22.50
2018-06-22T15:07:54.097Z,22.30
2018-06-22T15:10:23.133Z,22.10
2018-06-22T15:12:51.747Z,22.10
2018-06-22T15:15:20.426Z,21.80
2018-06-22T15:17:52.513Z,21.60
2018-06-22T15:20:26.698Z,21.50
2018-06-22T15:22:55.438Z,21.30
2018-06-22T15:25:24.024Z,21.10
2018-06-22T15:27:52.690Z,21.00
2018-06-22T15:30:21.333Z,21.00
2018-06-22T15:32:49.967Z,21.10
2018-06-22T15:37:28.106Z,21.10
2018-06-22T15:40:01.846Z,21.10
2018-06-22T15:42:35.650Z,20.90
2018-06-22T15:45:09.722Z,20.80
2018-06-22T15:49:46.580Z,20.80
2018-06-22T15:52:20.387Z,20.80
2018-06-22T15:55:11.309Z,20.70
2018-06-22T15:57:40.038Z,20.60
2018-06-22T16:00:10.396Z,20.40
2018-06-22T16:02:44.563Z,20.40
2018-06-22T16:05:13.269Z,20.40
2018-06-22T16:07:41.923Z,20.40
2018-06-22T16:10:10.606Z,20.30
2018-06-22T16:12:40.628Z,20.20
2018-06-22T16:15:16.743Z,20.30
2018-06-22T16:17:50.590Z,20.20
2018-06-22T16:20:24.571Z,20.20
2018-06-22T16:22:58.426Z,20.30
2018-06-22T16:25:32.391Z,20.20
2018-06-22T16:28:02.236Z,20.20
2018-06-22T16:30:31.113Z,20.20
2018-06-22T16:32:59.761Z,20.10
2018-06-22T16:35:28.380Z,20.10
2018-06-22T16:37:57.093Z,20.10
2018-06-22T16:40:25.738Z,20.10
2018-06-22T16:42:54.442Z,20.10
2018-06-22T16:45:23.082Z,20.10
2018-06-22T16:47:51.666Z,20.10
2018-06-22T16:50:20.301Z,20.00
2018-06-22T16:52:48.944Z,20.00
2018-06-22T16:55:17.494Z,19.90
2018-06-22T16:57:46.130Z,19.90
2018-06-22T17:00:14.751Z,19.90
2018-06-22T17:02:43.391Z,19.90
2018-06-22T17:05:12.326Z,19.90
2018-06-22T17:07:46.155Z,19.90
2018-06-22T17:10:20.072Z,19.80
2018-06-22T17:12:53.712Z,19.80
2018-06-22T17:15:27.544Z,19.80
2018-06-22T17:18:01.395Z,19.80
2018-06-22T17:20:30.071Z,19.80
2018-06-22T17:22:58.905Z,19.80
2018-06-22T17:25:27.531Z,19.70
2018-06-22T17:27:56.189Z,19.80
2018-06-22T17:30:24.825Z,19.70
2018-06-22T17:32:53.411Z,19.70
2018-06-22T17:35:22.109Z,19.70
2018-06-22T17:37:50.704Z,19.70
2018-06-22T17:40:19.315Z,19.60
2018-06-22T17:42:47.934Z,19.70
2018-06-22T17:45:16.578Z,19.60
2018-06-22T17:47:45.255Z,19.60
2018-06-22T17:50:19.003Z,19.60
2018-06-22T17:52:47.656Z,19.50
2018-06-22T17:55:16.250Z,19.50
2018-06-22T17:57:44.965Z,19.50
2018-06-22T18:00:18.642Z,19.50
2018-06-22T18:02:52.419Z,19.50
2018-06-22T18:05:26.373Z,19.50
2018-06-22T18:07:54.998Z,19.40
2018-06-22T18:10:28.967Z,19.40
2018-06-22T18:12:59.186Z,19.40
2018-06-22T18:15:27.619Z,19.30
2018-06-22T18:17:56.284Z,19.20
2018-06-22T18:20:24.919Z,19.20
2018-06-22T18:22:53.532Z,19.10
2018-06-22T18:25:22.135Z,19.10
2018-06-22T18:27:50.730Z,19.00
2018-06-22T18:30:19.392Z,19.00
2018-06-22T18:32:47.963Z,19.00
2018-06-22T18:35:16.624Z,19.10
2018-06-22T18:37:45.275Z,19.10
2018-06-22T18:40:13.929Z,19.10
2018-06-22T18:42:42.578Z,19.00
2018-06-22T18:45:12.145Z,19.10
2018-06-22T18:47:41.353Z,19.10
2018-06-22T18:50:10.126Z,19.10
2018-06-22T18:52:46.913Z,19.10
2018-06-22T18:55:30.401Z,19.00
2018-06-22T18:58:04.238Z,18.90
2018-06-22T19:00:38.004Z,18.90
2018-06-22T19:03:12.169Z,18.90
2018-06-22T19:05:40.852Z,18.90
2018-06-22T19:08:09.401Z,18.70
2018-06-22T19:10:38.038Z,18.60
2018-06-22T19:13:06.628Z,18.60
2018-06-22T19:15:35.207Z,18.60
2018-06-22T19:18:03.865Z,18.50
2018-06-22T19:20:32.547Z,18.50
2018-06-22T19:23:01.159Z,18.40
2018-06-22T19:25:29.768Z,18.40
2018-06-22T19:27:58.382Z,18.40
2018-06-22T19:30:26.957Z,18.30
2018-06-22T19:32:55.627Z,18.30
2018-06-22T19:35:24.255Z,18.20
2018-06-22T19:37:52.879Z,18.20
2018-06-22T19:40:21.435Z,18.20
2018-06-22T19:42:50.067Z,18.20
2018-06-22T19:45:23.963Z,18.10
2018-06-22T19:47:57.869Z,18.20
2018-06-22T19:50:31.763Z,18.10
2018-06-22T19:53:05.664Z,18.10
2018-06-22T19:55:34.361Z,18.10
2018-06-22T19:58:02.948Z,18.10
2018-06-22T20:00:31.563Z,18.10
2018-06-22T20:03:00.141Z,18.10
2018-06-22T20:05:28.738Z,18.00
2018-06-22T20:07:57.399Z,17.90
2018-06-22T20:10:26.082Z,17.90
2018-06-22T20:12:54.810Z,17.80
2018-06-22T20:15:23.688Z,17.80
2018-06-22T20:17:52.680Z,17.80
2018-06-22T20:20:21.321Z,17.70
2018-06-22T20:22:50.167Z,17.70
2018-06-22T20:25:23.999Z,17.70
2018-06-22T20:27:53.408Z,17.60
2018-06-22T20:30:22.156Z,17.60
2018-06-22T20:32:50.739Z,17.50
2018-06-22T20:35:24.543Z,17.40
2018-06-22T20:37:58.493Z,17.40
2018-06-22T20:40:32.359Z,17.40
2018-06-22T20:43:05.138Z,17.30
2018-06-22T20:45:38.881Z,17.30
2018-06-22T20:48:12.718Z,17.30
2018-06-22T20:50:41.348Z,17.40
2018-06-22T20:53:10.099Z,17.40
2018-06-22T20:55:38.638Z,17.40
2018-06-22T20:58:07.347Z,17.30
2018-06-22T21:00:36.028Z,17.30
2018-06-22T21:03:04.841Z,17.30
2018-06-22T21:05:33.520Z,17.20
2018-06-22T21:08:02.095Z,17.30
2018-06-22T21:10:30.783Z,17.20
2018-06-22T21:12:59.605Z,17.20
2018-06-22T21:15:28.051Z,17.20
2018-06-22T21:17:56.693Z,17.20
2018-06-22T21:20:25.335Z,17.20
2018-06-22T21:22:53.939Z,17.10
2018-06-22T21:25:22.565Z,17.10
2018-06-22T21:27:56.399Z,17.10
2018-06-22T21:30:30.314Z,17.10
2018-06-22T21:33:04.076Z,17.00
2018-06-22T21:35:38.002Z,17.00
2018-06-22T21:38:11.962Z,17.00
2018-06-22T21:40:40.587Z,16.90
2018-06-22T21:43:09.311Z,17.00
2018-06-22T21:45:37.919Z,16.90
2018-06-22T21:48:06.474Z,16.90
2018-06-22T21:50:35.051Z,16.80
2018-06-22T21:53:03.730Z,16.80
2018-06-22T21:55:32.345Z,16.70
2018-06-22T21:58:00.991Z,16.70
2018-06-22T22:00:32.591Z,16.70
2018-06-22T22:03:01.845Z,16.70
2018-06-22T22:05:31.177Z,16.60
2018-06-22T22:08:00.099Z,16.60
2018-06-22T22:10:34.130Z,16.60
2018-06-22T22:13:02.790Z,16.60
2018-06-22T22:15:31.351Z,16.50
2018-06-22T22:17:59.963Z,16.50
2018-06-22T22:20:28.552Z,16.50
2018-06-22T22:22:57.248Z,16.50
2018-06-22T22:25:25.838Z,16.50
2018-06-22T22:27:54.547Z,16.50
2018-06-22T22:30:23.103Z,16.50
2018-06-22T22:32:51.713Z,16.50
2018-06-22T22:35:20.329Z,16.40
2018-06-22T22:37:49.025Z,16.40
2018-06-22T22:40:17.647Z,16.40
2018-06-22T22:42:46.387Z,16.40
2018-06-22T22:45:14.997Z,16.30
2018-06-22T22:47:43.638Z,16.30
2018-06-22T22:50:12.399Z,16.20
2018-06-22T22:52:41.043Z,16.10
2018-06-22T22:55:09.826Z,16.00
2018-06-22T22:57:38.365Z,16.00
2018-06-22T23:00:07.011Z,15.90
2018-06-22T23:02:35.646Z,15.90
2018-06-22T23:05:04.564Z,15.90
2018-06-22T23:07:33.218Z,15.80
2018-06-22T23:10:01.943Z,15.60
2018-06-22T23:12:30.559Z,15.40
2018-06-22T23:15:04.254Z,15.50
2018-06-22T23:17:32.875Z,15.40
2018-06-22T23:20:01.503Z,15.40
2018-06-22T23:22:41.169Z,15.40
2018-06-22T23:25:10.004Z,15.50
2018-06-22T23:27:38.639Z,15.40
2018-06-22T23:30:07.367Z,15.30
2018-06-22T23:32:36.026Z,15.30
2018-06-22T23:35:04.785Z,15.20
2018-06-22T23:37:33.382Z,15.20
2018-06-22T23:40:02.072Z,15.10
2018-06-22T23:42:30.737Z,15.10
2018-06-22T23:44:59.406Z,15.10
2018-06-22T23:47:28.014Z,15.00
2018-06-22T23:49:56.575Z,15.00
2018-06-22T23:52:25.220Z,14.90
2018-06-22T23:54:53.849Z,15.00
2018-06-22T23:57:22.452Z,15.00
2018-06-22T23:59:51.018Z,16.10
